createdAt,value
2018-04-30T00:01:52.874Z,7.50
2018-04-30T00:04:20.358Z,6.53
2018-04-30T00:06:47.824Z,7.03
2018-04-30T00:09:15.274Z,8.10
2018-04-30T00:11:42.784Z,7.23
2018-04-30T00:14:10.248Z,7.60
2018-04-30T00:16:37.683Z,7.90
2018-04-30T00:19:05.140Z,6.97
2018-04-30T00:21:32.600Z,7.30
2018-04-30T00:24:00.036Z,6.40
2018-04-30T00:26:27.508Z,7.23
2018-04-30T00:28:55.002Z,6.80
2018-04-30T00:31:22.454Z,7.07
2018-04-30T00:33:49.966Z,6.70
2018-04-30T00:36:17.468Z,6.97
2018-04-30T00:38:44.927Z,7.13
2018-04-30T00:41:12.409Z,6.80
2018-04-30T00:43:39.888Z,6.57
2018-04-30T00:46:07.358Z,8.20
2018-04-30T00:48:34.833Z,7.20
2018-04-30T00:51:02.292Z,7.70
2018-04-30T00:53:29.770Z,9.07
2018-04-30T00:55:57.260Z,7.77
2018-04-30T00:58:24.748Z,7.63
2018-04-30T01:00:52.203Z,7.60
2018-04-30T01:03:19.721Z,8.30
2018-04-30T01:05:47.174Z,9.77
2018-04-30T01:08:14.648Z,9.30
2018-04-30T01:10:42.100Z,8.53
2018-04-30T01:13:09.544Z,8.13
2018-04-30T01:15:37.062Z,9.47
2018-04-30T01:18:04.539Z,9.03
2018-04-30T01:20:32.025Z,9.67
2018-04-30T01:22:59.532Z,9.27
2018-04-30T01:25:26.984Z,11.10
2018-04-30T01:27:54.460Z,9.63
2018-04-30T01:30:21.938Z,10.63
2018-04-30T01:32:49.391Z,10.63
2018-04-30T01:35:16.875Z,11.03
2018-04-30T01:37:44.374Z,11.50
2018-04-30T01:40:11.824Z,11.63
2018-04-30T01:42:39.304Z,10.80
2018-04-30T01:45:06.784Z,10.90
2018-04-30T01:47:34.243Z,11.33
2018-04-30T01:50:01.732Z,12.30
2018-04-30T01:52:29.209Z,10.93
2018-04-30T01:54:56.697Z,12.00
2018-04-30T01:57:24.203Z,12.70
2018-04-30T01:59:51.701Z,12.50
2018-04-30T02:02:19.188Z,13.13
2018-04-30T02:04:46.692Z,12.10
2018-04-30T02:07:14.177Z,12.97
2018-04-30T02:09:41.638Z,12.17
2018-04-30T02:12:09.133Z,12.03
2018-04-30T02:14:36.637Z,12.17
2018-04-30T02:17:04.112Z,13.63
2018-04-30T02:19:31.569Z,11.13
2018-04-30T02:21:59.055Z,13.43
2018-04-30T02:24:26.573Z,13.97
2018-04-30T02:26:54.027Z,13.80
2018-04-30T02:29:21.509Z,14.13
2018-04-30T02:31:49.117Z,14.60
2018-04-30T02:34:16.643Z,14.20
2018-04-30T02:36:44.136Z,14.40
2018-04-30T02:39:11.652Z,13.50
2018-04-30T02:41:39.270Z,14.47
2018-04-30T02:44:06.808Z,14.83
2018-04-30T02:46:34.291Z,14.67
2018-04-30T02:49:01.753Z,13.57
2018-04-30T02:51:29.234Z,14.23
2018-04-30T02:53:56.709Z,15.07
2018-04-30T02:56:24.221Z,15.30
2018-04-30T02:58:51.749Z,13.27
2018-04-30T03:01:19.232Z,13.57
2018-04-30T03:03:46.709Z,14.37
2018-04-30T03:06:14.180Z,13.27
2018-04-30T03:08:41.628Z,13.23
2018-04-30T03:11:09.087Z,12.80
2018-04-30T03:13:36.596Z,13.93
2018-04-30T03:16:04.090Z,13.33
2018-04-30T03:18:31.577Z,14.10
2018-04-30T03:20:59.114Z,14.77
2018-04-30T03:23:26.578Z,12.90
2018-04-30T03:25:54.026Z,13.40
2018-04-30T03:28:21.505Z,12.13
2018-04-30T03:30:48.962Z,13.23
2018-04-30T03:33:16.450Z,12.40
2018-04-30T03:35:43.949Z,11.20
2018-04-30T03:38:11.479Z,12.30
2018-04-30T03:40:38.937Z,12.10
2018-04-30T03:43:06.489Z,13.30
2018-04-30T03:45:34.001Z,15.77
2018-04-30T03:48:01.482Z,12.80
2018-04-30T03:50:29.000Z,14.40
2018-04-30T03:52:56.488Z,12.10
2018-04-30T03:55:23.977Z,11.30
2018-04-30T03:57:51.464Z,10.80
2018-04-30T04:00:30.847Z,12.20
2018-04-30T04:03:10.335Z,11.03
2018-04-30T04:05:49.551Z,12.50
2018-04-30T04:08:17.065Z,11.33
2018-04-30T04:10:44.541Z,12.17
2018-04-30T04:13:11.995Z,11.40
2018-04-30T04:15:39.516Z,10.73
2018-04-30T04:18:06.969Z,11.53
2018-04-30T04:20:34.457Z,11.30
2018-04-30T04:23:01.973Z,10.00
2018-04-30T04:25:29.533Z,10.17
2018-04-30T04:27:57.037Z,11.57
2018-04-30T04:30:24.629Z,11.40
2018-04-30T04:32:52.135Z,11.07
2018-04-30T04:35:19.598Z,9.60
2018-04-30T04:37:47.098Z,11.97
2018-04-30T04:40:14.607Z,10.50
2018-04-30T04:42:42.078Z,9.90
2018-04-30T04:45:09.559Z,8.87
2018-04-30T04:47:37.142Z,8.77
2018-04-30T04:50:04.646Z,8.77
2018-04-30T04:52:32.124Z,9.60
2018-04-30T04:54:59.687Z,10.50
2018-04-30T04:57:27.123Z,8.23
2018-04-30T04:59:54.582Z,9.73
2018-04-30T05:02:22.814Z,8.30
2018-04-30T05:04:50.279Z,9.23
2018-04-30T05:07:17.767Z,9.97
2018-04-30T05:09:45.285Z,10.03
2018-04-30T05:12:12.774Z,10.00
2018-04-30T05:14:40.234Z,9.20
2018-04-30T05:17:07.676Z,9.40
2018-04-30T05:19:35.191Z,14.53
2018-04-30T05:22:02.686Z,10.90
2018-04-30T05:24:30.160Z,8.53
2018-04-30T05:26:57.607Z,12.90
2018-04-30T05:29:25.085Z,9.67
2018-04-30T05:31:52.678Z,11.00
2018-04-30T05:34:20.158Z,10.97
2018-04-30T05:36:47.603Z,16.60
2018-04-30T05:39:15.128Z,10.03
2018-04-30T05:41:42.600Z,9.47
2018-04-30T05:44:10.047Z,9.30
2018-04-30T05:46:37.528Z,12.07
2018-04-30T05:49:05.042Z,9.20
2018-04-30T05:51:32.631Z,10.77
2018-04-30T05:54:00.113Z,9.00
2018-04-30T05:56:27.602Z,9.70
2018-04-30T05:58:55.153Z,9.30
2018-04-30T06:01:22.629Z,10.57
2018-04-30T06:03:50.152Z,9.63
2018-04-30T06:06:17.636Z,9.90
2018-04-30T06:08:45.177Z,10.57
2018-04-30T06:11:12.658Z,11.50
2018-04-30T06:13:40.156Z,10.80
2018-04-30T06:16:07.598Z,9.60
2018-04-30T06:18:35.077Z,9.27
2018-04-30T06:21:02.558Z,10.13
2018-04-30T06:23:30.014Z,10.97
2018-04-30T06:25:57.493Z,11.07
2018-04-30T06:28:25.001Z,11.40
2018-04-30T06:30:52.489Z,10.40
2018-04-30T06:33:20.076Z,10.20
2018-04-30T06:35:47.636Z,9.40
2018-04-30T06:38:15.051Z,10.20
2018-04-30T06:40:42.522Z,10.80
2018-04-30T06:43:10.048Z,12.03
2018-04-30T06:45:37.614Z,9.47
2018-04-30T06:48:05.083Z,9.83
2018-04-30T06:50:32.573Z,10.53
2018-04-30T06:53:00.032Z,9.73
2018-04-30T06:55:27.527Z,11.00
2018-04-30T06:57:55.026Z,9.77
2018-04-30T07:00:22.504Z,11.77
2018-04-30T07:02:49.960Z,11.30
2018-04-30T07:05:17.507Z,9.70
2018-04-30T07:07:44.958Z,8.93
2018-04-30T07:10:12.405Z,9.13
2018-04-30T07:12:39.981Z,10.60
2018-04-30T07:15:07.432Z,10.20
2018-04-30T07:17:34.936Z,10.57
2018-04-30T07:20:02.615Z,10.67
2018-04-30T07:22:30.010Z,11.77
2018-04-30T07:24:57.467Z,12.53
2018-04-30T07:27:24.941Z,11.03
2018-04-30T07:29:52.514Z,13.90
2018-04-30T07:32:20.000Z,13.57
2018-04-30T07:34:47.713Z,10.87
2018-04-30T07:37:15.225Z,11.63
2018-04-30T07:39:42.741Z,10.70
2018-04-30T07:42:10.254Z,10.80
2018-04-30T07:44:37.710Z,12.10
2018-04-30T07:47:05.194Z,13.33
2018-04-30T07:49:32.707Z,12.23
2018-04-30T07:52:00.169Z,12.40
2018-04-30T07:54:27.652Z,11.20
2018-04-30T07:56:55.178Z,11.03
2018-04-30T07:59:22.669Z,11.77
2018-04-30T08:01:50.157Z,12.13
2018-04-30T08:04:17.679Z,12.97
2018-04-30T08:06:45.218Z,12.03
2018-04-30T08:09:12.961Z,12.93
2018-04-30T08:11:40.472Z,11.00
2018-04-30T08:14:07.980Z,12.40
2018-04-30T08:16:35.475Z,12.30
2018-04-30T08:19:02.989Z,13.57
2018-04-30T08:21:30.563Z,12.27
2018-04-30T08:23:57.951Z,15.23
2018-04-30T08:26:25.408Z,13.00
2018-04-30T08:28:52.897Z,11.67
2018-04-30T08:31:20.442Z,11.60
2018-04-30T08:33:47.903Z,11.60
2018-04-30T08:36:15.362Z,11.20
2018-04-30T08:38:42.937Z,11.60
2018-04-30T08:41:10.396Z,11.17
2018-04-30T08:43:37.893Z,15.20
2018-04-30T08:46:05.470Z,10.90
2018-04-30T08:48:32.944Z,11.47
2018-04-30T08:51:00.415Z,10.90
2018-04-30T08:53:27.875Z,12.57
2018-04-30T08:55:55.366Z,11.43
2018-04-30T08:58:22.924Z,12.70
2018-04-30T09:00:50.412Z,12.77
2018-04-30T09:03:17.912Z,10.87
2018-04-30T09:05:45.437Z,10.20
2018-04-30T09:08:12.989Z,10.73
2018-04-30T09:10:40.476Z,12.30
2018-04-30T09:13:07.988Z,10.37
2018-04-30T09:15:35.461Z,10.97
2018-04-30T09:18:03.033Z,9.93
2018-04-30T09:20:30.538Z,10.30
2018-04-30T09:22:58.001Z,10.90
2018-04-30T09:25:25.490Z,11.93
2018-04-30T09:27:52.965Z,10.17
2018-04-30T09:30:20.427Z,9.40
2018-04-30T09:32:48.005Z,11.00
2018-04-30T09:35:15.487Z,9.50
2018-04-30T09:37:42.968Z,8.90
2018-04-30T09:40:10.461Z,7.83
2018-04-30T09:42:37.947Z,9.70
2018-04-30T09:45:05.432Z,8.57
2018-04-30T09:47:32.896Z,9.30
2018-04-30T09:50:00.423Z,9.00
2018-04-30T09:52:27.900Z,8.47
2018-04-30T09:54:55.372Z,10.27
2018-04-30T09:57:22.822Z,10.80
2018-04-30T09:59:50.276Z,10.10
2018-04-30T10:02:17.788Z,10.87
2018-04-30T10:04:45.284Z,10.27
2018-04-30T10:07:12.788Z,11.60
2018-04-30T10:09:40.355Z,11.33
2018-04-30T10:12:07.844Z,11.00
2018-04-30T10:14:35.334Z,11.20
2018-04-30T10:17:02.872Z,12.03
2018-04-30T10:19:30.353Z,10.47
2018-04-30T10:21:57.839Z,9.80
2018-04-30T10:24:25.330Z,11.03
2018-04-30T10:26:52.826Z,7.80
2018-04-30T10:29:20.309Z,7.63
2018-04-30T10:31:47.804Z,7.23
2018-04-30T10:34:15.250Z,6.30
2018-04-30T10:36:42.747Z,5.50
2018-04-30T10:39:10.239Z,5.50
2018-04-30T10:41:37.699Z,5.00
2018-04-30T10:44:05.211Z,5.23
2018-04-30T10:46:32.701Z,4.00
2018-04-30T10:49:00.177Z,4.40
2018-04-30T10:51:27.639Z,4.93
2018-04-30T10:53:55.091Z,3.63
2018-04-30T10:56:22.548Z,2.70
2018-04-30T10:58:49.988Z,3.30
2018-04-30T11:01:17.451Z,3.00
2018-04-30T11:03:45.073Z,4.00
2018-04-30T11:06:12.546Z,3.27
2018-04-30T11:08:40.003Z,3.40
2018-04-30T11:11:07.536Z,3.50
2018-04-30T11:13:35.028Z,4.43
2018-04-30T11:16:02.520Z,2.80
2018-04-30T11:18:29.997Z,3.20
2018-04-30T11:20:57.477Z,3.10
2018-04-30T11:23:24.964Z,3.17
2018-04-30T11:25:52.483Z,2.73
2018-04-30T11:28:19.989Z,2.93
2018-04-30T11:30:47.465Z,3.60
2018-04-30T11:33:14.993Z,2.80
2018-04-30T11:35:42.509Z,2.70
2018-04-30T11:38:10.088Z,2.30
2018-04-30T11:40:37.603Z,3.30
2018-04-30T11:43:05.122Z,2.57
2018-04-30T11:45:32.651Z,2.90
2018-04-30T11:48:00.157Z,2.30
2018-04-30T11:50:27.685Z,2.17
2018-04-30T11:52:55.171Z,2.27
2018-04-30T11:55:22.665Z,3.40
2018-04-30T11:57:50.139Z,3.73
2018-04-30T12:00:17.604Z,1.83
2018-04-30T12:02:45.128Z,1.77
2018-04-30T12:05:12.659Z,2.00
2018-04-30T12:07:40.119Z,2.50
2018-04-30T12:10:07.599Z,2.47
2018-04-30T12:12:35.384Z,2.20
2018-04-30T12:15:02.906Z,2.00
2018-04-30T12:17:30.469Z,2.50
2018-04-30T12:19:57.928Z,3.03
2018-04-30T12:22:25.516Z,3.00
2018-04-30T12:24:53.046Z,2.10
2018-04-30T12:27:20.504Z,3.10
2018-04-30T12:29:48.052Z,2.10
2018-04-30T12:32:15.476Z,2.50
2018-04-30T12:34:42.972Z,2.00
2018-04-30T12:37:10.564Z,1.17
2018-04-30T12:39:38.221Z,1.53
2018-04-30T12:42:05.720Z,2.67
2018-04-30T12:44:33.188Z,2.47
2018-04-30T12:47:00.685Z,2.40
2018-04-30T12:49:28.253Z,1.20
2018-04-30T12:51:55.676Z,2.03
2018-04-30T12:54:23.173Z,1.40
2018-04-30T12:56:50.620Z,1.60
2018-04-30T12:59:18.087Z,2.70
2018-04-30T13:01:45.611Z,1.93
2018-04-30T13:04:13.090Z,1.93
2018-04-30T13:06:40.556Z,2.70
2018-04-30T13:09:08.152Z,1.50
2018-04-30T13:11:35.603Z,1.60
2018-04-30T13:14:03.091Z,1.80
2018-04-30T13:16:30.552Z,2.30
2018-04-30T13:18:58.035Z,2.33
2018-04-30T13:21:25.571Z,1.50
2018-04-30T13:23:53.026Z,1.30
2018-04-30T13:26:20.497Z,1.30
2018-04-30T13:28:47.971Z,1.87
2018-04-30T13:31:15.416Z,1.47
2018-04-30T13:33:42.868Z,1.90
2018-04-30T13:36:10.388Z,1.70
2018-04-30T13:38:37.837Z,2.40
2018-04-30T13:41:05.271Z,1.40
2018-04-30T13:43:32.801Z,3.03
2018-04-30T13:46:00.243Z,1.73
2018-04-30T13:48:27.719Z,1.73
2018-04-30T13:50:55.212Z,1.80
2018-04-30T13:53:22.696Z,1.50
2018-04-30T13:55:50.192Z,1.43
2018-04-30T13:58:17.655Z,2.80
2018-04-30T14:00:45.212Z,2.00
2018-04-30T14:03:12.728Z,1.60
2018-04-30T14:05:40.191Z,1.40
2018-04-30T14:08:07.633Z,1.87
2018-04-30T14:10:35.137Z,2.00
2018-04-30T14:13:02.614Z,1.53
2018-04-30T14:15:30.060Z,2.57
2018-04-30T14:17:57.568Z,2.20
2018-04-30T14:20:25.053Z,2.40
2018-04-30T14:22:52.533Z,1.93
2018-04-30T14:25:20.007Z,1.60
2018-04-30T14:27:47.493Z,5.23
2018-04-30T14:30:14.934Z,1.60
2018-04-30T14:32:42.402Z,1.37
2018-04-30T14:35:09.844Z,1.37
2018-04-30T14:37:37.283Z,2.40
2018-04-30T14:40:04.775Z,1.87
2018-04-30T14:42:32.216Z,1.30
2018-04-30T14:44:59.706Z,1.20
2018-04-30T14:47:27.214Z,2.30
2018-04-30T14:49:54.671Z,1.27
2018-04-30T14:52:22.162Z,1.43
2018-04-30T14:54:49.637Z,1.40
2018-04-30T14:57:17.119Z,1.83
2018-04-30T14:59:44.674Z,1.20
2018-04-30T15:02:12.177Z,1.67
2018-04-30T15:04:39.761Z,1.40
2018-04-30T15:07:07.240Z,1.30
2018-04-30T15:09:34.866Z,1.77
2018-04-30T15:12:02.357Z,1.30
2018-04-30T15:14:29.833Z,1.50
2018-04-30T15:16:57.348Z,1.63
2018-04-30T15:19:24.840Z,1.40
2018-04-30T15:21:52.338Z,1.90
2018-04-30T15:24:19.823Z,1.50
2018-04-30T15:26:47.282Z,1.30
2018-04-30T15:29:14.727Z,1.47
2018-04-30T15:31:42.176Z,1.57
2018-04-30T15:34:09.607Z,2.07
2018-04-30T15:36:37.099Z,2.30
2018-04-30T15:39:04.581Z,1.60
2018-04-30T15:41:32.062Z,1.87
2018-04-30T15:43:59.531Z,1.37
2018-04-30T15:46:26.976Z,1.70
2018-04-30T15:48:54.454Z,1.70
2018-04-30T15:51:21.961Z,1.60
2018-04-30T15:53:49.406Z,1.60
2018-04-30T15:56:16.889Z,1.47
2018-04-30T15:58:44.436Z,1.57
2018-04-30T16:01:11.971Z,1.30
2018-04-30T16:03:39.467Z,1.30
2018-04-30T16:06:06.942Z,1.70
2018-04-30T16:08:34.441Z,1.40
2018-04-30T16:11:01.925Z,1.90
2018-04-30T16:13:29.450Z,1.80
2018-04-30T16:15:56.908Z,1.47
2018-04-30T16:18:24.372Z,1.37
2018-04-30T16:20:51.888Z,1.60
2018-04-30T16:23:19.368Z,2.97
2018-04-30T16:25:46.814Z,2.00
2018-04-30T16:28:14.302Z,2.00
2018-04-30T16:30:41.754Z,2.20
2018-04-30T16:33:09.229Z,1.80
2018-04-30T16:35:36.759Z,1.80
2018-04-30T16:38:04.220Z,1.93
2018-04-30T16:40:31.667Z,1.90
2018-04-30T16:42:59.114Z,2.10
2018-04-30T16:45:26.610Z,1.83
2018-04-30T16:47:54.055Z,1.50
2018-04-30T16:50:21.563Z,1.90
2018-04-30T16:52:49.064Z,1.77
2018-04-30T16:55:16.537Z,1.60
2018-04-30T16:57:43.989Z,2.23
2018-04-30T17:00:11.557Z,1.73
2018-04-30T17:02:39.001Z,1.70
2018-04-30T17:05:06.477Z,2.73
2018-04-30T17:07:33.999Z,1.70
2018-04-30T17:10:01.443Z,2.30
2018-04-30T17:12:28.890Z,2.57
2018-04-30T17:14:56.372Z,1.70
2018-04-30T17:17:23.831Z,2.47
2018-04-30T17:19:51.271Z,1.80
2018-04-30T17:22:18.767Z,2.60
2018-04-30T17:24:46.264Z,3.63
2018-04-30T17:27:13.738Z,2.47
2018-04-30T17:29:41.215Z,3.27
2018-04-30T17:32:08.667Z,2.47
2018-04-30T17:34:36.110Z,2.10
2018-04-30T17:37:03.578Z,2.43
2018-04-30T17:39:31.019Z,2.00
2018-04-30T17:41:58.543Z,1.40
2018-04-30T17:44:26.033Z,2.03
2018-04-30T17:46:53.513Z,2.03
2018-04-30T17:49:20.992Z,2.20
2018-04-30T17:51:48.452Z,2.43
2018-04-30T17:54:15.920Z,3.40
2018-04-30T17:56:43.407Z,2.80
2018-04-30T17:59:10.885Z,3.30
2018-04-30T18:01:38.381Z,2.97
2018-04-30T18:04:05.967Z,4.00
2018-04-30T18:06:33.519Z,6.90
2018-04-30T18:09:01.027Z,6.00
2018-04-30T18:11:28.480Z,17.90
2018-04-30T18:16:29.857Z,5.50
2018-04-30T18:18:57.345Z,19.37
2018-04-30T18:21:24.845Z,3.87
2018-04-30T18:23:52.326Z,6.00
2018-04-30T18:26:19.772Z,4.70
2018-04-30T18:28:47.244Z,8.00
2018-04-30T18:31:14.724Z,9.40
2018-04-30T18:33:42.204Z,10.23
2018-04-30T18:36:09.665Z,27.97
2018-04-30T18:38:37.174Z,26.43
2018-04-30T18:41:04.643Z,22.23
2018-04-30T18:43:32.121Z,24.37
2018-04-30T18:45:59.636Z,13.43
2018-04-30T18:48:27.116Z,47.23
2018-04-30T18:50:54.571Z,11.10
2018-04-30T18:53:22.089Z,15.43
2018-04-30T18:55:49.556Z,10.37
2018-04-30T18:58:17.045Z,14.33
2018-04-30T19:00:44.556Z,9.70
2018-04-30T19:03:12.013Z,20.30
2018-04-30T19:05:39.459Z,18.20
2018-04-30T19:08:06.958Z,30.37
2018-04-30T19:10:34.448Z,21.03
2018-04-30T19:13:01.947Z,41.03
2018-04-30T19:15:29.465Z,13.47
2018-04-30T19:17:56.962Z,26.10
2018-04-30T19:20:24.449Z,16.87
2018-04-30T19:22:51.981Z,9.53
2018-04-30T19:25:19.469Z,7.00
2018-04-30T19:27:46.933Z,21.83
2018-04-30T19:30:14.407Z,13.30
2018-04-30T19:32:41.853Z,12.30
2018-04-30T19:35:09.366Z,24.17
2018-04-30T19:37:36.849Z,10.13
2018-04-30T19:40:04.375Z,6.67
2018-04-30T19:42:31.813Z,8.33
2018-04-30T19:44:59.305Z,5.67
2018-04-30T19:47:26.762Z,16.33
2018-04-30T19:49:54.260Z,6.77
2018-04-30T19:52:21.823Z,7.33
2018-04-30T19:54:49.224Z,7.60
2018-04-30T19:57:16.677Z,7.13
2018-04-30T19:59:44.170Z,17.53
2018-04-30T20:02:11.702Z,22.00
2018-04-30T20:04:39.190Z,15.30
2018-04-30T20:07:06.643Z,20.80
2018-04-30T20:09:34.112Z,25.77
2018-04-30T20:12:01.631Z,12.97
2018-04-30T20:14:29.191Z,19.50
2018-04-30T20:16:56.736Z,27.10
2018-04-30T20:19:24.226Z,12.47
2018-04-30T20:21:51.679Z,13.83
2018-04-30T20:24:19.161Z,8.10
2018-04-30T20:26:46.665Z,12.33
2018-04-30T20:29:15.020Z,14.07
2018-04-30T20:31:42.504Z,22.40
2018-04-30T20:34:09.996Z,11.93
2018-04-30T20:36:37.457Z,10.53
2018-04-30T20:39:05.754Z,13.23
2018-04-30T20:41:33.200Z,14.00
2018-04-30T20:44:00.691Z,10.10
2018-04-30T20:46:28.208Z,8.57
2018-04-30T20:48:55.672Z,12.07
2018-04-30T20:51:23.189Z,9.40
2018-04-30T20:53:50.654Z,8.83
2018-04-30T20:56:18.137Z,9.43
2018-04-30T20:58:45.632Z,25.33
2018-04-30T21:01:13.131Z,7.10
2018-04-30T21:03:40.620Z,7.53
2018-04-30T21:06:08.104Z,10.00
2018-04-30T21:08:47.355Z,13.77
2018-04-30T21:11:14.857Z,9.30
2018-04-30T21:13:42.334Z,6.97
2018-04-30T21:16:09.783Z,37.83
2018-04-30T21:18:37.277Z,12.90
2018-04-30T21:21:04.790Z,7.80
2018-04-30T21:23:32.283Z,16.90
2018-04-30T21:25:59.827Z,22.83
2018-04-30T21:28:27.292Z,14.70
2018-04-30T21:30:54.791Z,16.20
2018-04-30T21:33:22.279Z,37.77
2018-04-30T21:35:49.794Z,22.17
2018-04-30T21:38:17.245Z,21.80
2018-04-30T21:40:44.690Z,12.27
2018-04-30T21:43:12.166Z,14.10
2018-04-30T21:45:39.691Z,22.70
2018-04-30T21:48:07.241Z,16.33
2018-04-30T21:50:34.743Z,23.20
2018-04-30T21:53:02.214Z,21.80
2018-04-30T21:55:29.669Z,16.97
2018-04-30T21:57:57.172Z,17.63
2018-04-30T22:00:28.697Z,26.30
2018-04-30T22:02:56.125Z,16.60
2018-04-30T22:05:23.600Z,15.70
2018-04-30T22:07:51.053Z,12.53
2018-04-30T22:10:18.589Z,15.07
2018-04-30T22:12:46.064Z,13.57
2018-04-30T22:15:13.583Z,21.23
2018-04-30T22:17:41.032Z,13.53
2018-04-30T22:20:08.543Z,25.43
2018-04-30T22:22:36.005Z,10.40
2018-04-30T22:25:03.481Z,19.43
2018-04-30T22:27:30.988Z,24.60
2018-04-30T22:29:58.472Z,15.87
2018-04-30T22:32:26.036Z,27.50
2018-04-30T22:34:53.486Z,14.10
2018-04-30T22:37:20.972Z,10.57
2018-04-30T22:39:48.432Z,10.43
2018-04-30T22:42:15.887Z,17.83
2018-04-30T22:44:43.393Z,16.67
2018-04-30T22:47:10.840Z,10.67
2018-04-30T22:49:38.309Z,20.70
2018-04-30T22:52:05.839Z,21.43
2018-04-30T22:54:33.316Z,25.50
2018-04-30T22:57:00.759Z,24.43
2018-04-30T22:59:28.227Z,19.40
2018-04-30T23:01:55.678Z,21.70
2018-04-30T23:04:23.144Z,28.30
2018-04-30T23:06:50.627Z,33.03
2018-04-30T23:09:18.113Z,13.57
2018-04-30T23:11:45.589Z,33.63
2018-04-30T23:14:13.115Z,20.13
2018-04-30T23:16:40.596Z,13.30
2018-04-30T23:19:08.111Z,10.80
2018-04-30T23:21:35.597Z,19.23
2018-04-30T23:24:03.055Z,12.80
2018-04-30T23:26:30.546Z,8.37
2018-04-30T23:28:58.026Z,6.00
2018-04-30T23:31:25.518Z,18.60
2018-04-30T23:33:53.019Z,12.03
2018-04-30T23:36:20.497Z,13.27
2018-04-30T23:38:47.985Z,28.67
2018-04-30T23:41:15.531Z,11.60
2018-04-30T23:43:43.018Z,8.77
2018-04-30T23:46:10.469Z,18.00
2018-04-30T23:48:37.939Z,16.97
2018-04-30T23:51:05.415Z,46.00
2018-04-30T23:53:32.894Z,55.97
2018-04-30T23:56:00.364Z,16.40
2018-04-30T23:58:27.925Z,10.90
